logo
Search for airport 
image banner adimage banner adimage banner ad
image banner ad

SI8A - Fazenda Paiaguás

Located in Aquidauana, Brazil

ICAO - SI8A, IATA -

Data provided by Airmate  

General information

Coordinates: S20°5'56" W55°28'44"
Elevation is 869 feet MSL.
 
View others Airports in Tocatins

Operational data

Special qualification required
Current time UTC:
Current local time:
Weather at : - ( 0 km )
METAR: LMML 140515Z 06010KT CAVOK 17/16 Q1022 NOSIG
View NOTAMs / SUP AIP / TFR affecting this airport [VIEW]
Communications frequencies: [VIEW]

Runways:

RWY identifierQFULength (ft)Width (ft)SurfaceLDA (ft)
17262566GRAVEL
35262566GRAVEL

Airport contact information

Address: Aquidauana Brazil

Satellite view of SI8A